Time;durP1;ratioP1;P1;durP2;ratioP2;P2;SDS_P1;SDS_P2;PMS_P1;PMS_P2;Temp;Humidity;BMP_temperature;BMP_pressure;BME280_temperature;BME280_humidity;BME280_pressure;Samples;Min_cycle;Max_cycle;Signal;HPM_P1;HPM_P2
2023/07/12 00:01:24;;;;;;;4.03;1.65;;;23.50;77.90;;;;;;4963012;28;20039;-86
2023/07/12 00:03:50;;;;;;;7.85;1.70;;;23.40;79.20;;;;;;4939965;28;20035;-86
2023/07/12 00:06:23;;;;;;;5.25;1.83;;;23.20;80.70;;;;;;4928359;28;20074;-86
2023/07/12 00:08:49;;;;;;;2.28;1.88;;;23.10;82.60;;;;;;4974573;28;20130;-88
2023/07/12 00:11:22;;;;;;;4.72;2.38;;;22.90;84.40;;;;;;4961847;28;20042;-89
2023/07/12 00:13:50;;;;;;;4.25;2.58;;;22.70;86.70;;;;;;4951713;28;20129;-85
2023/07/12 00:16:18;;;;;;;3.13;1.92;;;22.50;88.10;;;;;;4941984;29;20046;-87
2023/07/12 00:18:44;;;;;;;5.28;2.70;;;22.20;90.00;;;;;;4955349;29;20128;-87
2023/07/12 00:21:12;;;;;;;3.30;2.70;;;22.00;90.60;;;;;;4923868;29;20510;-86
2023/07/12 00:23:38;;;;;;;7.40;3.00;;;21.80;91.30;;;;;;4938028;29;20098;-87
2023/07/12 00:26:31;;;;;;;3.15;2.53;;;21.60;92.10;;;;;;4954852;29;20066;-88
2023/07/12 00:28:59;;;;;;;2.78;2.58;;;21.50;92.90;;;;;;4939204;29;20028;-88
2023/07/12 00:31:25;;;;;;;5.03;2.72;;;21.40;94.20;;;;;;4924029;29;20035;-87
2023/07/12 00:33:52;;;;;;;3.35;2.80;;;21.30;95.10;;;;;;4938775;29;20156;-88
2023/07/12 00:36:22;;;;;;;4.88;2.88;;;21.30;96.10;;;;;;4925709;29;20035;-85
2023/07/12 00:38:48;;;;;;;6.18;3.08;;;21.20;96.90;;;;;;4951844;29;20096;-87
2023/07/12 00:41:47;;;;;;;8.32;3.60;;;21.20;97.70;;;;;;4955997;28;20039;-85
2023/07/12 00:44:41;;;;;;;6.05;2.65;;;21.10;98.60;;;;;;4973525;28;20072;-87
2023/07/12 00:47:12;;;;;;;3.05;2.63;;;21.10;99.70;;;;;;4950691;28;20141;-87
2023/07/12 00:49:38;;;;;;;7.05;2.97;;;21.00;99.90;;;;;;4982166;28;20043;-87
2023/07/12 00:52:04;;;;;;;3.50;2.70;;;21.00;99.90;;;;;;4954096;28;20445;-87
2023/07/12 00:54:56;;;;;;;6.82;2.72;;;21.00;99.90;;;;;;4955594;28;20049;-85
2023/07/12 00:57:24;;;;;;;3.50;2.78;;;20.90;99.90;;;;;;4935932;28;20035;-89
2023/07/12 00:59:52;;;;;;;3.60;2.65;;;21.00;99.90;;;;;;4948547;28;20042;-84
2023/07/12 01:02:22;;;;;;;3.78;2.25;;;21.00;99.90;;;;;;4939089;29;20540;-87
2023/07/12 01:04:51;;;;;;;4.68;2.83;;;20.90;99.90;;;;;;4954055;28;20047;-88
2023/07/12 01:07:19;;;;;;;3.28;2.30;;;20.90;99.90;;;;;;4944077;28;20047;-86
2023/07/12 01:09:47;;;;;;;4.05;2.47;;;20.90;99.90;;;;;;4961242;28;20034;-85
2023/07/12 01:12:13;;;;;;;3.78;2.42;;;20.90;99.90;;;;;;4959939;28;20434;-87
2023/07/12 01:14:41;;;;;;;3.17;2.80;;;20.90;99.90;;;;;;4953007;28;20153;-88
2023/07/12 01:17:08;;;;;;;3.90;2.20;;;20.90;99.90;;;;;;4937602;29;20120;-88
2023/07/12 01:19:36;;;;;;;2.33;2.05;;;20.80;99.90;;;;;;4953962;29;20040;-87
2023/07/12 01:22:03;;;;;;;4.20;2.55;;;20.80;99.90;;;;;;4953930;29;20042;-87
2023/07/12 01:24:33;;;;;;;4.22;2.70;;;20.80;99.90;;;;;;4953133;29;20035;-87
2023/07/12 01:27:10;;;;;;;2.63;2.25;;;20.70;99.90;;;;;;4953100;29;20118;-86
2023/07/12 01:29:36;;;;;;;5.10;2.45;;;20.70;99.90;;;;;;4969254;28;20038;-86
2023/07/12 01:32:02;;;;;;;4.00;2.20;;;20.70;99.90;;;;;;4964855;28;20125;-87
2023/07/12 01:34:28;;;;;;;3.45;2.45;;;20.60;99.90;;;;;;4971244;28;20039;-88
2023/07/12 01:36:54;;;;;;;2.35;1.95;;;20.60;99.90;;;;;;4958627;28;20530;-87
2023/07/12 01:39:22;;;;;;;3.08;2.42;;;20.40;99.90;;;;;;4938524;29;20050;-89
2023/07/12 01:41:47;;;;;;;2.63;2.10;;;20.10;99.90;;;;;;4953384;29;20665;-89
2023/07/12 01:44:14;;;;;;;4.35;2.38;;;20.10;99.90;;;;;;4954107;28;20035;-88
2023/07/12 01:46:39;;;;;;;4.05;2.25;;;20.00;99.90;;;;;;4960319;28;20090;-87
2023/07/12 01:49:05;;;;;;;3.03;1.98;;;20.00;99.90;;;;;;4921569;29;20039;-89
2023/07/12 01:51:32;;;;;;;2.65;2.20;;;20.00;99.90;;;;;;4937156;29;20654;-87
2023/07/12 01:53:58;;;;;;;3.70;2.00;;;20.10;99.90;;;;;;4970949;28;20075;-87
2023/07/12 01:56:24;;;;;;;3.70;2.40;;;20.20;99.90;;;;;;4930113;29;20032;-86
2023/07/12 01:58:51;;;;;;;2.42;2.22;;;20.20;99.90;;;;;;4937490;29;20556;-87
2023/07/12 02:01:17;;;;;;;4.93;2.75;;;20.10;99.90;;;;;;4936437;29;20027;-87
2023/07/12 02:03:42;;;;;;;6.75;2.58;;;20.00;99.90;;;;;;4929293;28;20057;-88
2023/07/12 02:06:09;;;;;;;3.40;2.05;;;20.00;99.90;;;;;;4963344;28;20745;-87
2023/07/12 02:08:34;;;;;;;3.90;2.50;;;20.00;99.90;;;;;;4936183;29;20171;-87
2023/07/12 02:11:00;;;;;;;2.67;1.92;;;20.00;99.90;;;;;;4937839;28;20042;-87
2023/07/12 02:13:26;;;;;;;3.70;2.15;;;20.10;99.90;;;;;;4933252;29;20080;-87
2023/07/12 02:15:52;;;;;;;4.07;2.40;;;20.10;99.90;;;;;;4920094;29;20031;-87
2023/07/12 02:18:18;;;;;;;2.63;2.28;;;20.10;99.90;;;;;;4946274;28;20252;-86
2023/07/12 02:20:44;;;;;;;3.00;2.03;;;20.20;99.90;;;;;;4955257;28;20035;-87
2023/07/12 02:23:10;;;;;;;3.03;2.05;;;20.30;99.90;;;;;;4959861;28;20445;-87
2023/07/12 02:25:36;;;;;;;2.25;2.05;;;20.30;99.90;;;;;;4945775;29;20033;-88
2023/07/12 02:28:04;;;;;;;2.40;1.90;;;20.30;99.90;;;;;;4959695;28;20027;-87
2023/07/12 02:30:31;;;;;;;2.10;1.90;;;20.30;99.90;;;;;;4939572;29;20081;-87
2023/07/12 02:32:58;;;;;;;3.60;2.40;;;20.30;99.90;;;;;;4951532;29;20035;-87
2023/07/12 02:35:29;;;;;;;2.22;2.03;;;20.40;99.90;;;;;;4951313;29;20027;-87
2023/07/12 02:37:59;;;;;;;3.40;2.45;;;20.40;99.90;;;;;;4959344;28;20813;-87
2023/07/12 02:40:26;;;;;;;3.88;2.50;;;20.30;99.90;;;;;;4959479;28;20042;-87
2023/07/12 02:42:53;;;;;;;3.83;2.35;;;20.20;99.90;;;;;;4951216;29;20031;-87
2023/07/12 02:45:19;;;;;;;3.13;2.55;;;20.10;99.90;;;;;;4959210;28;20416;-87
2023/07/12 02:47:45;;;;;;;4.43;2.50;;;19.90;99.90;;;;;;4951765;29;20568;-86
2023/07/12 02:50:11;;;;;;;3.35;2.45;;;19.90;99.90;;;;;;4940125;28;20122;-87
2023/07/12 02:52:37;;;;;;;3.30;2.47;;;19.90;99.90;;;;;;4951516;28;20033;-88
2023/07/12 02:55:03;;;;;;;5.43;2.65;;;19.90;99.90;;;;;;4938850;28;20045;-88
2023/07/12 02:57:29;;;;;;;3.08;2.15;;;19.90;99.90;;;;;;4946488;28;20497;-87
2023/07/12 02:59:54;;;;;;;3.72;2.65;;;20.00;99.90;;;;;;4970646;28;20130;-87
2023/07/12 03:02:20;;;;;;;3.40;2.22;;;20.00;99.90;;;;;;4939298;29;20041;-88
2023/07/12 03:04:46;;;;;;;2.58;2.38;;;20.00;99.90;;;;;;4944406;28;20410;-86
2023/07/12 03:07:31;;;;;;;4.55;2.30;;;20.00;99.90;;;;;;4959039;28;20549;-86
2023/07/12 03:09:57;;;;;;;4.07;2.17;;;20.00;99.90;;;;;;4920106;29;20122;-87
2023/07/12 03:12:29;;;;;;;3.65;2.38;;;20.00;99.90;;;;;;4967600;28;20135;-86
2023/07/12 03:15:13;;;;;;;3.90;2.22;;;20.10;99.90;;;;;;4955961;28;20070;-86
2023/07/12 03:17:39;;;;;;;2.22;2.03;;;20.00;99.90;;;;;;4962921;28;20113;-86
2023/07/12 03:20:06;;;;;;;2.53;1.90;;;20.10;99.90;;;;;;4957685;28;20045;-86
2023/07/12 03:22:31;;;;;;;2.60;1.67;;;20.10;99.90;;;;;;4966116;28;20031;-85
2023/07/12 03:24:57;;;;;;;2.30;1.80;;;20.10;99.90;;;;;;4958780;28;20070;-86
2023/07/12 03:27:23;;;;;;;3.28;1.48;;;20.00;99.90;;;;;;4957331;28;20042;-86
2023/07/12 03:29:49;;;;;;;2.97;2.13;;;20.00;99.90;;;;;;4930786;28;20167;-85
2023/07/12 03:32:15;;;;;;;2.65;1.67;;;19.90;99.90;;;;;;4964845;28;20063;-87
2023/07/12 03:34:41;;;;;;;3.28;1.75;;;19.90;99.90;;;;;;4953068;28;20065;-86
2023/07/12 03:37:07;;;;;;;4.85;1.90;;;19.90;99.90;;;;;;4941921;29;20470;-86
2023/07/12 03:39:32;;;;;;;2.05;1.50;;;20.00;99.90;;;;;;4960104;28;20057;-87
2023/07/12 03:41:58;;;;;;;3.28;1.45;;;20.00;99.90;;;;;;4949387;28;20049;-85
2023/07/12 03:44:24;;;;;;;1.52;1.42;;;19.90;99.90;;;;;;4941585;28;20042;-86
2023/07/12 03:46:50;;;;;;;1.58;1.40;;;19.90;99.90;;;;;;4956490;28;20042;-85
2023/07/12 03:49:16;;;;;;;1.50;1.40;;;19.90;99.90;;;;;;4938681;29;20042;-86
2023/07/12 03:51:41;;;;;;;2.63;1.60;;;19.90;99.90;;;;;;4938212;29;20036;-86
2023/07/12 03:54:07;;;;;;;1.65;1.50;;;19.90;99.90;;;;;;4965625;28;20105;-86
2023/07/12 03:56:33;;;;;;;2.17;1.27;;;19.90;99.90;;;;;;4962151;28;20031;-86
2023/07/12 03:58:59;;;;;;;2.40;1.30;;;19.90;99.90;;;;;;4946690;28;20035;-85
2023/07/12 04:01:25;;;;;;;3.88;1.88;;;19.90;99.90;;;;;;4945065;28;20652;-86
2023/07/12 04:03:51;;;;;;;1.35;1.25;;;19.90;99.90;;;;;;4949450;28;20075;-86
2023/07/12 04:06:17;;;;;;;3.85;1.38;;;19.90;99.90;;;;;;4948885;28;20039;-85
2023/07/12 04:08:43;;;;;;;2.28;1.48;;;19.90;99.90;;;;;;4940540;29;20525;-85
2023/07/12 04:11:23;;;;;;;3.10;1.30;;;19.90;99.90;;;;;;4954571;28;20031;-87
2023/07/12 04:13:50;;;;;;;1.38;1.27;;;19.90;99.90;;;;;;4937535;28;20406;-86
2023/07/12 04:16:15;;;;;;;4.55;1.35;;;19.90;99.90;;;;;;4942571;28;20093;-87
2023/07/12 04:18:41;;;;;;;2.25;1.20;;;19.90;99.90;;;;;;4945179;28;20031;-86
2023/07/12 04:21:07;;;;;;;1.98;1.20;;;19.90;99.90;;;;;;4937899;29;20035;-86
2023/07/12 04:23:33;;;;;;;1.42;1.33;;;19.90;99.90;;;;;;4937902;29;20042;-85
2023/07/12 04:26:18;;;;;;;1.15;1.05;;;19.90;99.90;;;;;;4939399;28;20049;-85
2023/07/12 04:28:48;;;;;;;2.88;1.30;;;19.90;99.90;;;;;;4956101;28;20034;-86
2023/07/12 04:31:16;;;;;;;2.80;1.30;;;20.00;99.90;;;;;;4958319;28;20066;-86
2023/07/12 04:33:42;;;;;;;1.67;1.10;;;20.00;99.90;;;;;;4972442;28;20393;-86
2023/07/12 04:36:09;;;;;;;1.33;1.02;;;20.10;99.90;;;;;;4941615;29;20032;-88
2023/07/12 04:38:36;;;;;;;1.35;1.10;;;20.20;99.90;;;;;;4953509;29;20506;-86
2023/07/12 04:41:02;;;;;;;2.83;1.20;;;20.30;99.90;;;;;;4957988;28;20035;-86
2023/07/12 04:43:29;;;;;;;1.42;1.33;;;20.30;99.90;;;;;;4957359;28;20043;-87
2023/07/12 04:45:56;;;;;;;2.90;1.08;;;20.40;99.90;;;;;;4965557;28;20113;-86
2023/07/12 04:48:22;;;;;;;2.08;1.10;;;20.40;99.90;;;;;;4961944;28;20032;-87
2023/07/12 04:50:52;;;;;;;3.85;1.58;;;20.40;99.90;;;;;;4937564;29;20039;-87
2023/07/12 04:53:19;;;;;;;1.27;1.00;;;20.50;99.90;;;;;;4963388;28;20122;-87
2023/07/12 04:55:45;;;;;;;1.20;1.10;;;20.40;99.90;;;;;;4960155;28;20077;-86
2023/07/12 04:58:12;;;;;;;1.70;1.40;;;20.40;99.90;;;;;;4957420;28;20085;-85
2023/07/12 05:00:37;;;;;;;1.27;1.00;;;20.50;99.90;;;;;;4952701;28;20035;-86
2023/07/12 05:03:03;;;;;;;1.30;1.10;;;20.50;99.90;;;;;;4950632;28;20041;-85
2023/07/12 05:05:29;;;;;;;2.08;1.20;;;20.50;99.90;;;;;;4953387;28;20044;-87
2023/07/12 05:07:55;;;;;;;1.50;1.30;;;20.50;99.90;;;;;;4953165;28;20042;-87
2023/07/12 05:10:21;;;;;;;1.77;1.00;;;20.50;99.90;;;;;;4954809;28;20043;-88
2023/07/12 05:12:47;;;;;;;4.25;1.00;;;20.50;99.90;;;;;;4953196;29;20038;-87
2023/07/12 05:15:13;;;;;;;1.63;1.30;;;20.50;99.90;;;;;;4936095;29;20043;-88
2023/07/12 05:17:40;;;;;;;1.98;1.40;;;20.50;99.90;;;;;;4937454;29;20500;-88
2023/07/12 05:20:08;;;;;;;2.25;1.08;;;20.50;99.90;;;;;;4941912;28;20751;-88
2023/07/12 05:22:34;;;;;;;1.83;1.27;;;20.60;99.90;;;;;;4962702;29;20086;-88
2023/07/12 05:25:00;;;;;;;2.45;1.15;;;20.60;99.90;;;;;;4951536;28;20042;-86
2023/07/12 05:27:26;;;;;;;3.53;1.40;;;20.70;99.90;;;;;;4965278;28;20516;-85
2023/07/12 05:29:52;;;;;;;1.10;1.02;;;20.70;99.90;;;;;;4952266;28;20043;-86
2023/07/12 05:32:19;;;;;;;1.33;1.25;;;20.80;99.90;;;;;;4954054;28;20127;-86
2023/07/12 05:34:45;;;;;;;2.10;1.30;;;20.90;99.90;;;;;;4952617;29;20413;-86
2023/07/12 05:37:12;;;;;;;1.70;1.20;;;20.90;99.90;;;;;;4936906;29;20392;-86
2023/07/12 05:39:38;;;;;;;4.25;1.45;;;21.00;99.90;;;;;;4944665;29;20035;-87
2023/07/12 05:42:05;;;;;;;1.02;0.90;;;21.20;99.90;;;;;;4932880;29;20047;-88
2023/07/12 05:44:30;;;;;;;3.25;1.20;;;21.30;99.90;;;;;;4936037;29;20061;-87
2023/07/12 05:46:56;;;;;;;1.30;1.20;;;21.40;99.90;;;;;;4933583;28;20646;-87
2023/07/12 05:49:22;;;;;;;1.40;1.15;;;21.60;99.90;;;;;;4955400;29;20035;-88
2023/07/12 05:51:48;;;;;;;1.50;1.10;;;21.80;99.90;;;;;;4965348;28;20033;-86
2023/07/12 05:54:15;;;;;;;2.35;1.08;;;22.10;99.90;;;;;;4948458;29;20038;-86
2023/07/12 05:56:41;;;;;;;1.83;1.00;;;22.40;99.90;;;;;;4951479;28;20090;-86
2023/07/12 05:59:07;;;;;;;2.85;1.35;;;22.80;99.90;;;;;;4975390;28;20035;-87
2023/07/12 06:01:33;;;;;;;1.23;1.10;;;23.20;99.90;;;;;;4939235;28;20126;-87
2023/07/12 06:03:58;;;;;;;2.10;1.85;;;23.50;99.90;;;;;;4959355;28;20039;-85
2023/07/12 06:06:24;;;;;;;14.60;13.20;;;23.90;99.90;;;;;;4936064;29;20482;-86
2023/07/12 06:08:50;;;;;;;3.42;1.40;;;24.20;99.90;;;;;;4937131;28;20049;-86
2023/07/12 06:11:16;;;;;;;10.00;8.18;;;24.50;98.90;;;;;;4942205;29;20450;-86
2023/07/12 06:13:42;;;;;;;2.92;2.55;;;24.70;97.90;;;;;;4950812;28;20024;-86
2023/07/12 06:16:08;;;;;;;2.60;1.42;;;24.90;97.60;;;;;;4935294;29;20055;-86
2023/07/12 06:18:34;;;;;;;4.63;1.67;;;25.20;96.60;;;;;;4934865;29;20411;-87
2023/07/12 06:21:01;;;;;;;4.28;2.05;;;25.30;95.50;;;;;;4947003;28;20034;-87
2023/07/12 06:23:29;;;;;;;3.00;1.33;;;25.30;95.70;;;;;;4953965;28;20032;-88
2023/07/12 06:25:58;;;;;;;1.55;1.23;;;25.00;94.60;;;;;;4952314;28;20031;-87
2023/07/12 06:28:25;;;;;;;2.55;1.58;;;25.00;96.40;;;;;;4935622;29;20077;-86
2023/07/12 06:30:52;;;;;;;3.40;1.33;;;25.00;95.70;;;;;;4956537;28;20027;-87
2023/07/12 06:33:18;;;;;;;1.73;1.48;;;25.10;95.90;;;;;;4953886;28;20110;-86
2023/07/12 06:35:44;;;;;;;1.80;1.50;;;25.10;95.60;;;;;;4957774;28;20478;-86
2023/07/12 06:38:10;;;;;;;2.47;1.50;;;25.20;96.10;;;;;;4953976;28;20389;-87
2023/07/12 06:40:37;;;;;;;2.13;1.50;;;25.30;95.00;;;;;;4937279;29;20130;-86
2023/07/12 06:43:03;;;;;;;2.28;1.45;;;25.20;95.30;;;;;;4927142;29;20039;-87
2023/07/12 06:45:28;;;;;;;2.10;1.48;;;25.20;95.70;;;;;;4954903;28;20050;-87
2023/07/12 06:47:54;;;;;;;2.10;1.33;;;25.20;95.60;;;;;;4937781;28;20047;-87
2023/07/12 06:50:20;;;;;;;4.18;1.73;;;25.40;95.10;;;;;;4953657;28;20188;-86
2023/07/12 06:52:46;;;;;;;3.42;1.50;;;25.80;95.00;;;;;;4947017;28;20397;-89
2023/07/12 06:55:31;;;;;;;4.78;1.70;;;26.30;94.40;;;;;;4952073;28;20413;-89
2023/07/12 06:57:57;;;;;;;4.18;1.55;;;26.80;93.20;;;;;;4952767;28;20034;-87
2023/07/12 07:00:23;;;;;;;3.70;2.03;;;26.90;91.70;;;;;;4969607;28;20043;-87
2023/07/12 07:02:48;;;;;;;4.18;2.00;;;26.90;91.60;;;;;;4949870;28;20050;-88
2023/07/12 07:05:21;;;;;;;4.40;2.10;;;26.80;91.60;;;;;;4953576;28;20027;-89
2023/07/12 07:07:47;;;;;;;4.15;1.83;;;26.90;91.70;;;;;;4941151;28;20114;-88
2023/07/12 07:10:13;;;;;;;3.38;1.85;;;26.90;91.80;;;;;;4960846;28;20474;-86
2023/07/12 07:12:39;;;;;;;3.60;1.90;;;26.90;91.90;;;;;;4948624;29;20090;-89
2023/07/12 07:15:05;;;;;;;3.45;1.92;;;27.10;91.70;;;;;;4943670;28;20091;-90
2023/07/12 07:17:31;;;;;;;6.10;1.92;;;27.20;91.40;;;;;;4954354;28;20034;-89
2023/07/12 07:19:57;;;;;;;5.57;2.10;;;27.40;91.50;;;;;;4937529;29;20039;-88
2023/07/12 07:22:23;;;;;;;6.28;2.78;;;27.60;91.00;;;;;;4957638;28;20062;-88
2023/07/12 07:24:48;;;;;;;9.07;2.38;;;27.90;90.10;;;;;;4948419;28;20553;-86
2023/07/12 07:27:14;;;;;;;3.78;2.38;;;28.20;89.70;;;;;;4942569;29;20043;-89
2023/07/12 07:29:40;;;;;;;3.78;2.40;;;28.40;88.80;;;;;;4941491;29;20027;-87
2023/07/12 07:32:06;;;;;;;6.90;2.67;;;28.50;86.40;;;;;;4956001;28;20027;-86
2023/07/12 07:34:32;;;;;;;5.22;2.70;;;28.50;86.60;;;;;;4925665;29;20027;-88
2023/07/12 07:36:58;;;;;;;3.53;2.42;;;28.30;86.20;;;;;;4953946;28;20050;-89
2023/07/12 07:39:24;;;;;;;3.85;2.70;;;28.20;86.90;;;;;;4952766;28;20043;-89
2023/07/12 07:41:49;;;;;;;4.55;2.45;;;28.00;88.30;;;;;;4957063;28;20023;-88
2023/07/12 07:44:15;;;;;;;4.60;2.90;;;27.80;88.70;;;;;;4940611;29;20038;-88
2023/07/12 07:46:41;;;;;;;3.45;2.28;;;27.60;89.70;;;;;;4945754;28;20032;-89
2023/07/12 07:49:07;;;;;;;5.30;2.45;;;27.30;89.50;;;;;;4931001;29;20399;-89
2023/07/12 07:51:35;;;;;;;5.47;3.05;;;27.10;90.00;;;;;;4957466;28;20367;-87
2023/07/12 07:54:01;;;;;;;4.35;2.60;;;26.90;90.60;;;;;;4939889;29;20788;-88
2023/07/12 07:56:27;;;;;;;8.63;3.20;;;26.80;90.70;;;;;;4958399;28;20102;-87
2023/07/12 07:58:53;;;;;;;3.47;2.45;;;26.70;91.10;;;;;;4942480;29;20038;-87
2023/07/12 08:01:19;;;;;;;5.28;2.97;;;26.60;91.50;;;;;;4951296;28;20039;-88
2023/07/12 08:03:45;;;;;;;5.95;2.60;;;26.50;91.50;;;;;;4967598;28;20110;-88
2023/07/12 08:06:11;;;;;;;5.90;3.30;;;26.50;91.60;;;;;;4944390;29;20054;-88
2023/07/12 08:08:37;;;;;;;6.25;3.30;;;26.60;92.00;;;;;;4967007;28;20034;-88
2023/07/12 08:11:07;;;;;;;5.60;2.90;;;26.60;92.00;;;;;;4960418;28;20040;-88
2023/07/12 08:13:33;;;;;;;10.27;3.67;;;26.60;92.20;;;;;;4939268;29;20410;-86
2023/07/12 08:15:59;;;;;;;8.82;3.80;;;26.60;91.80;;;;;;4930107;28;20039;-88
2023/07/12 08:18:25;;;;;;;3.97;3.40;;;26.50;91.60;;;;;;4960078;28;20034;-88
2023/07/12 08:20:55;;;;;;;5.22;3.67;;;26.30;91.20;;;;;;4942503;29;20034;-87
2023/07/12 08:23:22;;;;;;;8.13;3.47;;;26.10;91.80;;;;;;4959831;29;20046;-87
2023/07/12 08:25:49;;;;;;;5.53;4.10;;;25.80;92.30;;;;;;4961482;28;20031;-89
2023/07/12 08:28:15;;;;;;;4.63;3.63;;;25.70;92.80;;;;;;4945491;29;20036;-87
2023/07/12 08:30:42;;;;;;;9.52;3.85;;;25.60;93.30;;;;;;4944449;29;20031;-86
2023/07/12 08:33:08;;;;;;;5.05;3.47;;;25.60;93.60;;;;;;4957489;29;20031;-87
2023/07/12 08:35:33;;;;;;;7.53;4.15;;;25.60;93.20;;;;;;4940269;29;20050;-87
2023/07/12 08:37:59;;;;;;;6.05;3.78;;;25.60;93.20;;;;;;4939476;28;20062;-87
2023/07/12 08:40:27;;;;;;;5.85;3.85;;;25.60;93.30;;;;;;4941182;29;20410;-86
2023/07/12 08:42:53;;;;;;;5.40;3.53;;;25.50;93.20;;;;;;4939056;29;20094;-89
2023/07/12 08:45:29;;;;;;;6.10;3.90;;;25.40;93.40;;;;;;4942997;28;20039;-90
2023/07/12 08:48:04;;;;;;;5.40;3.90;;;25.40;93.90;;;;;;4939506;28;20037;-88
2023/07/12 08:50:43;;;;;;;6.38;4.13;;;25.50;94.20;;;;;;4967121;28;20027;-87
2023/07/12 08:53:11;;;;;;;7.13;3.90;;;25.70;93.90;;;;;;4946196;28;20543;-89
2023/07/12 08:55:38;;;;;;;5.13;4.22;;;25.80;93.70;;;;;;4967827;28;20045;-86
2023/07/12 08:58:26;;;;;;;5.80;3.72;;;26.00;93.30;;;;;;4953293;29;20147;-90
2023/07/12 09:01:05;;;;;;;7.30;4.28;;;26.10;93.00;;;;;;4963668;28;20031;-89
2023/07/12 09:03:31;;;;;;;9.60;4.15;;;26.40;92.90;;;;;;4962946;28;20039;-87
2023/07/12 09:05:58;;;;;;;8.63;4.35;;;26.60;92.70;;;;;;4949698;28;20027;-89
2023/07/12 09:08:37;;;;;;;5.97;4.05;;;26.80;92.30;;;;;;4949570;28;20135;-87
2023/07/12 09:11:11;;;;;;;5.30;4.45;;;26.90;92.40;;;;;;4955100;28;20118;-89
2023/07/12 09:13:39;;;;;;;6.55;4.28;;;27.10;91.40;;;;;;4941493;28;20041;-88
2023/07/12 09:16:29;;;;;;;6.63;4.28;;;27.20;90.80;;;;;;4949183;28;20216;-88
2023/07/12 09:18:58;;;;;;;16.45;10.00;;;27.20;89.80;;;;;;4950081;28;20065;-87
2023/07/12 09:21:32;;;;;;;6.25;4.90;;;27.20;90.80;;;;;;4955985;28;20035;-87
2023/07/12 09:24:08;;;;;;;6.82;4.53;;;27.20;90.30;;;;;;4958102;28;20030;-87
2023/07/12 09:26:34;;;;;;;4.20;3.80;;;27.30;90.60;;;;;;4952780;28;20026;-89
2023/07/12 09:29:03;;;;;;;6.78;4.32;;;27.30;90.10;;;;;;4950892;28;20089;-87
2023/07/12 09:31:30;;;;;;;7.63;3.90;;;27.20;90.20;;;;;;4939666;28;20034;-88
2023/07/12 09:34:00;;;;;;;4.13;3.72;;;27.20;90.80;;;;;;4957689;28;20050;-88
2023/07/12 09:36:26;;;;;;;5.97;4.50;;;27.20;90.40;;;;;;4950424;28;20027;-89
2023/07/12 09:38:58;;;;;;;5.93;3.97;;;27.20;88.90;;;;;;4950283;28;20031;-87
2023/07/12 09:41:25;;;;;;;6.53;4.07;;;27.20;89.90;;;;;;4943194;29;20046;-88
2023/07/12 09:43:56;;;;;;;6.18;4.10;;;27.20;90.80;;;;;;4948974;28;20027;-87
2023/07/12 09:46:58;;;;;;;7.53;4.15;;;27.30;90.70;;;;;;4937028;28;20274;-88
2023/07/12 09:49:33;;;;;;;5.43;3.42;;;27.40;91.40;;;;;;4964854;28;20038;-88
2023/07/12 09:52:19;;;;;;;6.60;3.75;;;27.40;90.20;;;;;;4951724;28;20039;-88
2023/07/12 09:55:03;;;;;;;8.40;3.88;;;27.40;90.90;;;;;;4959746;28;20085;-87
2023/07/12 09:57:47;;;;;;;7.28;3.75;;;27.40;90.50;;;;;;4955053;28;20086;-88
2023/07/12 10:00:46;;;;;;;6.05;4.40;;;27.50;89.90;;;;;;4974007;28;20031;-87
2023/07/12 10:03:22;;;;;;;8.73;4.00;;;27.50;85.80;;;;;;4954048;28;20027;-88
2023/07/12 10:06:31;;;;;;;5.32;3.85;;;27.50;86.10;;;;;;4945135;28;20547;-86
2023/07/12 10:09:14;;;;;;;5.78;3.97;;;27.60;85.50;;;;;;4958592;28;20027;-87
2023/07/12 10:11:54;;;;;;;6.35;3.70;;;27.60;87.90;;;;;;4947166;28;20035;-87
2023/07/12 10:14:24;;;;;;;6.43;4.15;;;27.60;86.40;;;;;;4954618;28;20035;-88
2023/07/12 10:16:53;;;;;;;6.15;4.00;;;27.60;85.20;;;;;;4953819;28;20074;-87
2023/07/12 10:19:44;;;;;;;8.30;4.40;;;27.40;83.50;;;;;;4942181;29;20039;-86
2023/07/12 10:22:35;;;;;;;5.90;4.10;;;27.20;86.50;;;;;;4950557;28;20045;-87
2023/07/12 10:25:23;;;;;;;6.25;3.95;;;27.20;87.40;;;;;;4942783;29;20039;-86
2023/07/12 10:27:59;;;;;;;5.43;4.00;;;27.30;87.30;;;;;;4948719;28;20063;-86
2023/07/12 10:30:27;;;;;;;7.65;3.92;;;27.40;85.80;;;;;;4943991;28;20043;-86
2023/07/12 10:33:08;;;;;;;4.63;3.85;;;27.50;81.90;;;;;;4974552;28;20039;-85
2023/07/12 10:35:51;;;;;;;4.57;3.75;;;27.60;81.10;;;;;;4970142;28;20034;-86
2023/07/12 10:38:19;;;;;;;4.78;3.95;;;27.60;82.40;;;;;;4964336;28;20478;-86
2023/07/12 10:40:53;;;;;;;4.68;3.97;;;27.80;81.10;;;;;;4956133;28;20031;-86
2023/07/12 10:43:28;;;;;;;6.38;4.10;;;28.00;81.60;;;;;;4942473;28;20038;-87
2023/07/12 10:45:56;;;;;;;;;;;28.20;81.70;;;;;;4950888;29;20082;-86
2023/07/12 10:48:26;;;;;;;5.00;4.05;;;28.40;81.40;;;;;;4953843;28;19911;-88
2023/07/12 10:50:56;;;;;;;4.85;3.70;;;28.60;78.00;;;;;;4939703;28;20055;-86
2023/07/12 10:53:25;;;;;;;6.55;4.40;;;28.60;75.20;;;;;;4925291;29;20072;-86
2023/07/12 10:56:17;;;;;;;4.93;3.75;;;28.30;76.20;;;;;;4960312;28;20034;-88
2023/07/12 10:58:59;;;;;;;8.18;3.97;;;28.20;75.50;;;;;;4953142;28;20501;-87
2023/07/12 11:01:43;;;;;;;5.95;3.95;;;28.00;78.10;;;;;;4942558;29;20042;-88
2023/07/12 11:04:16;;;;;;;4.40;3.72;;;28.00;79.90;;;;;;4951937;29;20035;-87
2023/07/12 11:07:15;;;;;;;7.00;3.78;;;28.20;79.90;;;;;;4953296;29;20055;-86
2023/07/12 11:09:47;;;;;;;8.02;4.18;;;28.30;80.50;;;;;;4933036;29;20387;-87
2023/07/12 11:12:18;;;;;;;11.50;4.30;;;28.40;77.40;;;;;;4957114;28;20664;-87
2023/07/12 11:14:46;;;;;;;5.43;4.03;;;28.40;77.60;;;;;;4955272;28;20486;-88
2023/07/12 11:17:49;;;;;;;4.55;4.15;;;28.40;74.50;;;;;;4958472;28;20041;-88
2023/07/12 11:20:26;;;;;;;5.63;3.97;;;28.40;77.80;;;;;;4945196;28;20038;-88
2023/07/12 11:22:54;;;;;;;4.68;3.75;;;28.50;76.80;;;;;;4951724;28;20039;-88
2023/07/12 11:25:38;;;;;;;5.63;3.92;;;28.50;77.40;;;;;;4951040;29;20442;-88
2023/07/12 11:28:22;;;;;;;5.00;4.43;;;28.50;75.90;;;;;;4952989;28;20046;-87
2023/07/12 11:31:15;;;;;;;4.28;3.60;;;28.40;75.00;;;;;;4935643;28;20111;-87
2023/07/12 11:34:20;;;;;;;5.85;4.20;;;28.40;75.20;;;;;;4962191;28;20066;-86
2023/07/12 11:36:55;;;;;;;4.68;3.95;;;28.40;73.10;;;;;;4953565;28;20633;-87
2023/07/12 11:39:22;;;;;;;;;;;28.50;75.00;;;;;;4957996;28;20564;-89
2023/07/12 11:42:01;;;;;;;4.55;3.63;;;28.70;73.80;;;;;;4954755;28;19910;-87
2023/07/12 11:44:27;;;;;;;4.53;3.88;;;28.80;71.80;;;;;;4935753;29;20123;-89
2023/07/12 11:46:53;;;;;;;9.15;3.75;;;29.00;71.10;;;;;;4924060;29;20093;-86
2023/07/12 11:49:29;;;;;;;4.43;3.95;;;29.00;68.10;;;;;;4958126;28;20085;-87
2023/07/12 11:52:04;;;;;;;4.53;3.83;;;29.00;68.60;;;;;;4970121;28;20038;-87
2023/07/12 11:54:40;;;;;;;4.82;3.67;;;29.10;66.30;;;;;;4946344;29;20572;-88
2023/07/12 11:57:11;;;;;;;5.10;3.72;;;29.10;67.00;;;;;;4957504;28;20026;-89
2023/07/12 11:59:39;;;;;;;4.53;3.60;;;29.20;67.80;;;;;;4956782;29;20031;-87
2023/07/12 12:02:13;;;;;;;8.13;4.13;;;29.30;65.90;;;;;;4951047;28;20240;-89
2023/07/12 12:04:39;;;;;;;4.43;3.80;;;29.40;66.60;;;;;;4968712;28;20035;-86
2023/07/12 12:07:17;;;;;;;5.68;3.85;;;29.40;67.60;;;;;;4940446;29;20039;-87
2023/07/12 12:09:43;;;;;;;4.45;3.53;;;29.40;63.30;;;;;;4955270;29;20496;-87
2023/07/12 12:12:17;;;;;;;4.85;3.53;;;29.50;63.80;;;;;;4948951;28;20031;-87
2023/07/12 12:14:43;;;;;;;3.80;3.40;;;29.50;61.70;;;;;;4959524;28;20058;-88
2023/07/12 12:17:16;;;;;;;6.07;3.50;;;29.50;63.40;;;;;;4947779;28;20490;-87
2023/07/12 12:19:48;;;;;;;5.22;2.97;;;29.40;59.90;;;;;;4947510;28;20039;-87
2023/07/12 12:22:17;;;;;;;3.78;3.35;;;29.40;64.70;;;;;;4962069;28;20505;-87
2023/07/12 12:24:47;;;;;;;5.03;3.47;;;29.30;64.20;;;;;;4967172;28;20118;-87
2023/07/12 12:27:19;;;;;;;4.30;3.90;;;29.20;65.60;;;;;;4940743;29;20081;-87
2023/07/12 12:29:45;;;;;;;6.47;3.85;;;29.00;66.10;;;;;;4947625;28;20037;-87
2023/07/12 12:32:16;;;;;;;5.60;4.32;;;28.90;68.00;;;;;;4948025;29;20019;-88
2023/07/12 12:34:49;;;;;;;4.82;3.70;;;28.80;66.60;;;;;;4969633;28;20053;-87
2023/07/12 12:37:19;;;;;;;4.25;3.67;;;28.80;69.10;;;;;;4941299;29;20030;-88
2023/07/12 12:40:02;;;;;;;4.18;3.47;;;28.90;69.90;;;;;;4970746;28;20110;-87
2023/07/12 12:42:30;;;;;;;5.45;3.75;;;29.30;69.40;;;;;;4944153;29;20038;-87
2023/07/12 12:44:56;;;;;;;5.38;4.00;;;29.40;68.60;;;;;;4955793;28;20339;-87
2023/07/12 12:47:23;;;;;;;5.65;3.80;;;29.50;66.10;;;;;;4959771;28;20500;-87
2023/07/12 12:49:49;;;;;;;4.47;3.92;;;29.50;67.00;;;;;;4955127;29;20105;-87
2023/07/12 12:52:25;;;;;;;5.32;4.13;;;29.60;67.30;;;;;;4960912;28;20046;-87
2023/07/12 12:54:52;;;;;;;6.70;4.20;;;29.90;68.20;;;;;;4921426;29;20504;-87
2023/07/12 12:57:19;;;;;;;4.68;4.07;;;30.00;65.30;;;;;;4941464;28;20085;-86
2023/07/12 12:59:46;;;;;;;4.70;3.95;;;30.20;65.20;;;;;;4953740;28;20036;-87
2023/07/12 13:02:19;;;;;;;5.95;4.30;;;30.40;66.30;;;;;;4952002;28;20028;-87